createdAt,value
2022-08-27T00:02:18.025Z,20.25
2022-08-27T00:04:46.555Z,20.24
2022-08-27T00:07:14.369Z,20.23
2022-08-27T00:09:43.310Z,20.23
2022-08-27T00:12:11.999Z,20.22
2022-08-27T00:14:40.583Z,20.20
2022-08-27T00:17:08.509Z,20.19
2022-08-27T00:19:37.136Z,20.17
2022-08-27T00:22:06.538Z,20.15
2022-08-27T00:24:38.530Z,20.13
2022-08-27T00:27:17.362Z,20.10
2022-08-27T00:29:47.595Z,20.09
2022-08-27T00:32:16.183Z,20.07
2022-08-27T00:34:45.102Z,20.05
2022-08-27T00:37:14.444Z,20.04
2022-08-27T00:39:42.619Z,20.02
2022-08-27T00:42:10.685Z,20.02
2022-08-27T00:44:39.433Z,20.02
2022-08-27T00:47:13.859Z,20.00
2022-08-27T00:49:50.983Z,19.99
2022-08-27T00:52:26.432Z,19.99
2022-08-27T00:55:05.821Z,19.98
2022-08-27T00:57:39.050Z,19.96
2022-08-27T01:00:13.013Z,19.95
2022-08-27T01:02:42.307Z,19.94
2022-08-27T01:05:15.511Z,19.93
2022-08-27T01:07:54.094Z,19.92
2022-08-27T01:10:26.958Z,19.90
2022-08-27T01:12:56.666Z,19.89
2022-08-27T01:15:26.705Z,19.87
2022-08-27T01:17:55.593Z,19.85
2022-08-27T01:20:30.240Z,19.83
2022-08-27T01:23:13.962Z,19.81
2022-08-27T01:25:44.000Z,19.79
2022-08-27T01:28:13.819Z,19.78
2022-08-27T01:30:43.198Z,19.77
2022-08-27T01:33:14.811Z,19.76
2022-08-27T01:35:46.361Z,19.75
2022-08-27T01:38:30.291Z,19.75
2022-08-27T01:41:01.109Z,19.75
2022-08-27T01:43:31.857Z,19.75
2022-08-27T01:45:59.852Z,19.76
2022-08-27T01:48:29.418Z,19.77
2022-08-27T01:50:57.403Z,19.76
2022-08-27T01:53:26.891Z,19.77
2022-08-27T01:55:58.997Z,19.77
2022-08-27T01:58:30.525Z,19.78
2022-08-27T02:01:03.403Z,19.77
2022-08-27T02:03:32.389Z,19.76
2022-08-27T02:06:04.952Z,19.75
2022-08-27T02:08:32.837Z,19.73
2022-08-27T02:11:01.894Z,19.71
2022-08-27T02:13:30.160Z,19.68
2022-08-27T02:15:58.566Z,19.64
2022-08-27T02:18:26.827Z,19.61
2022-08-27T02:20:55.016Z,19.58
2022-08-27T02:23:22.812Z,19.56
2022-08-27T02:25:51.887Z,19.54
2022-08-27T02:28:20.876Z,19.54
2022-08-27T02:30:48.743Z,19.54
2022-08-27T02:33:16.814Z,19.54
2022-08-27T02:35:44.574Z,19.54
2022-08-27T02:38:14.251Z,19.55
2022-08-27T02:40:42.486Z,19.55
2022-08-27T02:43:15.788Z,19.56
2022-08-27T02:45:44.568Z,19.58
2022-08-27T02:48:12.613Z,19.59
2022-08-27T02:50:41.403Z,19.60
2022-08-27T02:53:10.546Z,19.62
2022-08-27T02:55:39.310Z,19.64
2022-08-27T02:58:09.754Z,19.67
2022-08-27T03:00:38.002Z,19.69
2022-08-27T03:03:06.788Z,19.71
2022-08-27T03:05:35.114Z,19.73
2022-08-27T03:08:04.857Z,19.75
2022-08-27T03:10:33.261Z,19.77
2022-08-27T03:13:01.176Z,19.76
2022-08-27T03:15:29.087Z,19.71
2022-08-27T03:18:16.134Z,19.69
2022-08-27T03:20:46.455Z,19.70
2022-08-27T03:23:16.195Z,19.71
2022-08-27T03:25:51.692Z,19.74
2022-08-27T03:28:29.335Z,19.77
2022-08-27T03:31:01.524Z,19.82
2022-08-27T03:33:35.729Z,19.87
2022-08-27T03:36:06.447Z,19.94
2022-08-27T03:38:36.056Z,20.00
2022-08-27T03:41:04.803Z,20.06
2022-08-27T03:43:32.727Z,20.13
2022-08-27T03:46:02.365Z,20.20
2022-08-27T03:48:32.293Z,20.25
2022-08-27T03:51:08.672Z,20.28
2022-08-27T03:53:39.806Z,20.32
2022-08-27T03:56:09.494Z,20.35
2022-08-27T03:58:39.067Z,20.37
2022-08-27T04:01:07.945Z,20.41
2022-08-27T04:03:37.943Z,20.44
2022-08-27T04:06:06.076Z,20.46
2022-08-27T04:08:34.463Z,20.46
2022-08-27T04:11:07.149Z,20.47
2022-08-27T04:13:35.052Z,20.46
2022-08-27T04:16:05.685Z,20.45
2022-08-27T04:18:34.134Z,20.45
2022-08-27T04:21:09.319Z,20.44
2022-08-27T04:23:38.839Z,20.43
2022-08-27T04:26:09.881Z,20.44
2022-08-27T04:28:39.037Z,20.47
2022-08-27T04:31:13.117Z,20.48
2022-08-27T04:33:51.040Z,20.50
2022-08-27T04:36:20.455Z,20.57
2022-08-27T04:38:49.152Z,20.70
2022-08-27T04:41:20.043Z,20.89
2022-08-27T04:44:02.385Z,21.07
2022-08-27T04:46:33.218Z,21.29
2022-08-27T04:49:07.151Z,21.54
2022-08-27T04:51:40.988Z,21.83
2022-08-27T04:54:11.167Z,22.11
2022-08-27T04:56:39.774Z,22.39
2022-08-27T04:59:10.053Z,22.68
2022-08-27T05:01:40.263Z,22.94
2022-08-27T05:04:11.093Z,23.22
2022-08-27T05:06:39.419Z,23.46
2022-08-27T05:09:07.578Z,23.73
2022-08-27T05:11:35.706Z,23.99
2022-08-27T05:14:06.702Z,24.25
2022-08-27T05:16:36.681Z,24.47
2022-08-27T05:19:08.967Z,24.71
2022-08-27T05:21:40.303Z,24.93
2022-08-27T05:24:08.372Z,25.15
2022-08-27T05:26:37.285Z,25.38
2022-08-27T05:29:06.336Z,25.62
2022-08-27T05:31:35.460Z,25.77
2022-08-27T05:34:10.627Z,25.82
2022-08-27T05:36:48.588Z,25.85
2022-08-27T05:39:17.690Z,25.94
2022-08-27T05:41:45.597Z,26.00
2022-08-27T05:44:39.640Z,26.13
2022-08-27T05:47:03.318Z,26.35
2022-08-27T05:49:32.097Z,26.58
2022-08-27T05:52:00.285Z,26.84
2022-08-27T05:54:28.134Z,27.06
2022-08-27T05:56:55.953Z,27.28
2022-08-27T05:59:42.664Z,27.43
2022-08-27T06:02:11.246Z,27.58
2022-08-27T06:04:40.520Z,27.63
2022-08-27T06:07:10.652Z,27.70
2022-08-27T06:09:39.778Z,27.87
2022-08-27T06:12:12.391Z,28.06
2022-08-27T06:14:40.579Z,28.22
2022-08-27T06:17:08.613Z,28.22
2022-08-27T06:19:36.671Z,28.14
2022-08-27T06:22:10.023Z,28.23
2022-08-27T06:24:42.957Z,28.34
2022-08-27T06:27:14.204Z,28.37
2022-08-27T06:29:42.973Z,28.35
2022-08-27T06:32:12.237Z,28.34
2022-08-27T06:34:40.913Z,28.32
2022-08-27T06:37:09.059Z,28.33
2022-08-27T06:39:39.494Z,28.32
2022-08-27T06:42:11.939Z,28.39
2022-08-27T06:44:41.688Z,28.53
2022-08-27T06:47:11.146Z,28.65
2022-08-27T06:49:41.035Z,28.83
2022-08-27T06:52:09.333Z,29.01
2022-08-27T06:54:40.408Z,29.22
2022-08-27T06:57:08.216Z,29.39
2022-08-27T06:59:38.703Z,29.47
2022-08-27T07:02:08.013Z,29.56
2022-08-27T07:04:37.704Z,29.65
2022-08-27T07:07:06.339Z,29.73
2022-08-27T07:09:34.968Z,29.77
2022-08-27T07:12:03.733Z,29.79
2022-08-27T07:14:37.077Z,29.86
2022-08-27T07:17:11.351Z,29.93
2022-08-27T07:19:45.457Z,29.98
2022-08-27T07:22:13.931Z,30.08
2022-08-27T07:24:41.900Z,30.15
2022-08-27T07:27:09.796Z,30.19
2022-08-27T07:29:37.698Z,30.19
2022-08-27T07:32:05.757Z,30.19
2022-08-27T07:34:33.648Z,30.14
2022-08-27T07:37:01.551Z,30.10
2022-08-27T07:39:29.338Z,30.04
2022-08-27T07:42:16.499Z,30.03
2022-08-27T07:44:44.425Z,29.97
2022-08-27T07:47:12.438Z,29.76
2022-08-27T07:49:41.197Z,29.59
2022-08-27T07:52:17.352Z,29.50
2022-08-27T07:54:51.632Z,29.44
2022-08-27T07:57:20.026Z,29.45
2022-08-27T07:59:48.695Z,29.38
2022-08-27T08:02:16.588Z,29.34
2022-08-27T08:04:44.835Z,29.31
2022-08-27T08:07:12.624Z,29.36
2022-08-27T08:09:40.390Z,29.41
2022-08-27T08:12:08.649Z,29.42
2022-08-27T08:14:37.038Z,29.33
2022-08-27T08:17:06.399Z,29.27
2022-08-27T08:19:39.027Z,29.22
2022-08-27T08:22:07.753Z,29.18
2022-08-27T08:24:36.621Z,29.13
2022-08-27T08:27:07.704Z,29.09
2022-08-27T08:29:36.990Z,29.05
2022-08-27T08:32:06.764Z,29.03
2022-08-27T08:34:36.200Z,29.03
2022-08-27T08:37:05.849Z,29.00
2022-08-27T08:39:35.906Z,28.92
2022-08-27T08:42:07.150Z,28.89
2022-08-27T08:44:45.959Z,28.95
2022-08-27T08:47:22.010Z,29.05
2022-08-27T08:50:02.394Z,29.11
2022-08-27T08:52:43.840Z,29.16
2022-08-27T08:55:47.720Z,29.19
2022-08-27T08:58:19.823Z,29.19
2022-08-27T09:00:54.589Z,29.19
2022-08-27T09:03:23.674Z,29.24
2022-08-27T09:06:03.127Z,29.26
2022-08-27T09:08:41.673Z,29.32
2022-08-27T09:11:25.282Z,29.37
2022-08-27T09:13:59.603Z,29.42
2022-08-27T09:16:28.200Z,29.42
2022-08-27T09:18:56.151Z,29.44
2022-08-27T09:21:51.877Z,29.55
2022-08-27T09:24:26.005Z,29.69
2022-08-27T09:26:55.085Z,29.70
2022-08-27T09:29:28.173Z,29.76
2022-08-27T09:32:05.415Z,29.84
2022-08-27T09:34:39.453Z,29.89
2022-08-27T09:37:10.542Z,29.84
2022-08-27T09:39:47.773Z,29.78
2022-08-27T09:42:24.045Z,29.75
2022-08-27T09:44:54.541Z,29.69
2022-08-27T09:47:23.303Z,29.63
2022-08-27T09:50:07.028Z,29.56
2022-08-27T09:52:51.402Z,29.51
2022-08-27T09:55:44.671Z,29.48
2022-08-27T09:58:26.826Z,29.40
2022-08-27T10:01:05.825Z,29.41
2022-08-27T10:03:34.461Z,29.49
2022-08-27T10:06:03.127Z,29.43
2022-08-27T10:08:51.062Z,29.39
2022-08-27T10:11:38.426Z,29.32
2022-08-27T10:14:21.384Z,29.09
2022-08-27T10:17:08.147Z,29.06
2022-08-27T10:19:41.561Z,29.19
2022-08-27T10:22:33.758Z,29.22
2022-08-27T10:25:30.161Z,29.54
2022-08-27T10:28:12.879Z,29.77
2022-08-27T10:31:16.681Z,29.79
2022-08-27T10:34:25.664Z,29.90
2022-08-27T10:37:13.967Z,30.06
2022-08-27T10:39:54.774Z,30.18
2022-08-27T10:42:32.365Z,30.35
2022-08-27T10:45:31.103Z,30.53
2022-08-27T10:48:24.674Z,30.74
2022-08-27T10:51:37.903Z,30.89
2022-08-27T10:54:32.791Z,31.04
2022-08-27T10:57:28.910Z,31.13
2022-08-27T11:00:14.820Z,31.25
2022-08-27T11:03:09.348Z,31.37
2022-08-27T11:05:51.181Z,31.45
2022-08-27T11:08:50.147Z,31.46
2022-08-27T11:14:54.650Z,31.55
2022-08-27T11:17:32.020Z,31.54
2022-08-27T11:20:25.047Z,31.49
2022-08-27T11:23:31.977Z,31.46
2022-08-27T11:26:04.292Z,31.34
2022-08-27T11:28:50.479Z,31.31
2022-08-27T11:31:40.990Z,31.31
2022-08-27T11:34:48.790Z,31.23
2022-08-27T11:37:51.398Z,31.10
2022-08-27T11:40:58.509Z,31.01
2022-08-27T11:43:32.541Z,31.02
2022-08-27T11:46:06.506Z,31.03
2022-08-27T11:48:43.857Z,31.00
2022-08-27T11:51:26.545Z,30.96
2022-08-27T11:53:57.965Z,30.99
2022-08-27T11:56:28.953Z,30.91
2022-08-27T11:59:08.650Z,30.73
2022-08-27T12:01:36.879Z,30.63
2022-08-27T12:04:28.624Z,30.53
2022-08-27T12:07:17.627Z,30.44
2022-08-27T12:10:19.942Z,30.33
2022-08-27T12:12:58.473Z,30.20
2022-08-27T12:15:58.848Z,30.15
2022-08-27T12:18:53.789Z,30.13
2022-08-27T12:22:27.695Z,30.15
2022-08-27T12:25:00.544Z,30.21
2022-08-27T12:27:37.119Z,30.28
2022-08-27T12:30:30.017Z,30.33
2022-08-27T12:33:00.190Z,30.43
2022-08-27T12:35:49.100Z,30.55
2022-08-27T12:38:32.662Z,30.73
2022-08-27T12:41:04.056Z,30.92
2022-08-27T12:43:38.351Z,31.12
2022-08-27T12:46:17.871Z,31.33
2022-08-27T12:48:51.958Z,31.41
2022-08-27T12:51:26.025Z,31.63
2022-08-27T12:53:54.593Z,31.89
2022-08-27T12:56:56.764Z,32.10
2022-08-27T13:00:02.369Z,32.31
2022-08-27T13:02:55.832Z,32.41
2022-08-27T13:05:25.177Z,32.46
2022-08-27T13:07:54.741Z,32.43
2022-08-27T13:10:32.957Z,32.50
2022-08-27T13:13:08.061Z,32.66
2022-08-27T13:15:42.424Z,32.86
2022-08-27T13:18:13.482Z,33.06
2022-08-27T13:20:41.827Z,33.15
2022-08-27T13:23:24.108Z,33.24
2022-08-27T13:26:24.962Z,33.29
2022-08-27T13:28:53.540Z,33.29
2022-08-27T13:31:24.753Z,33.29
2022-08-27T13:33:58.791Z,33.30
2022-08-27T13:36:35.564Z,33.28
2022-08-27T13:39:06.242Z,33.27
2022-08-27T13:41:36.887Z,33.27
2022-08-27T13:44:19.714Z,33.28
2022-08-27T13:47:00.535Z,33.27
2022-08-27T13:49:34.158Z,33.15
2022-08-27T13:52:34.147Z,33.04
2022-08-27T13:55:08.243Z,32.91
2022-08-27T13:57:49.130Z,32.87
2022-08-27T14:00:31.680Z,32.80
2022-08-27T14:03:09.957Z,32.67
2022-08-27T14:05:48.472Z,32.60
2022-08-27T14:08:20.231Z,32.59
2022-08-27T14:10:58.916Z,32.60
2022-08-27T14:13:29.003Z,32.55
2022-08-27T14:15:59.608Z,32.50
2022-08-27T14:18:57.755Z,32.50
2022-08-27T14:21:24.161Z,32.48
2022-08-27T14:23:54.179Z,32.42
2022-08-27T14:26:22.990Z,32.36
2022-08-27T14:28:52.582Z,32.25
2022-08-27T14:31:31.428Z,32.08
2022-08-27T14:34:02.565Z,31.88
2022-08-27T14:36:33.171Z,31.67
2022-08-27T14:39:02.471Z,31.48
2022-08-27T14:41:30.813Z,31.31
2022-08-27T14:44:02.211Z,31.14
2022-08-27T14:46:35.988Z,31.00
2022-08-27T14:49:25.210Z,30.82
2022-08-27T14:51:54.038Z,30.64
2022-08-27T14:54:22.807Z,30.46
2022-08-27T14:56:59.186Z,30.33
2022-08-27T14:59:27.200Z,30.20
2022-08-27T15:01:59.914Z,30.15
2022-08-27T15:04:28.646Z,30.07
2022-08-27T15:06:57.411Z,29.99
2022-08-27T15:09:28.590Z,29.89
2022-08-27T15:11:58.012Z,29.81
2022-08-27T15:14:29.310Z,29.78
2022-08-27T15:17:00.767Z,29.80
2022-08-27T15:19:30.352Z,29.80
2022-08-27T15:22:17.137Z,29.75
2022-08-27T15:24:50.987Z,29.56
2022-08-27T15:27:19.509Z,29.43
2022-08-27T15:29:50.217Z,29.43
2022-08-27T15:32:47.376Z,29.49
2022-08-27T15:35:19.940Z,29.53
2022-08-27T15:37:47.821Z,29.46
2022-08-27T15:40:18.597Z,29.38
2022-08-27T15:42:52.975Z,29.30
2022-08-27T15:45:21.889Z,29.24
2022-08-27T15:47:53.646Z,29.23
2022-08-27T15:50:28.951Z,29.31
2022-08-27T15:53:00.442Z,29.35
2022-08-27T15:55:37.838Z,29.39
2022-08-27T15:58:09.067Z,29.41
2022-08-27T16:00:37.864Z,29.38
2022-08-27T16:03:11.424Z,29.27
2022-08-27T16:05:46.178Z,29.16
2022-08-27T16:08:16.871Z,29.04
2022-08-27T16:10:47.619Z,28.83
2022-08-27T16:13:16.219Z,28.68
2022-08-27T16:15:45.831Z,28.57
2022-08-27T16:18:14.203Z,28.38
2022-08-27T16:20:45.373Z,28.23
2022-08-27T16:23:13.937Z,28.10
2022-08-27T16:26:14.777Z,27.90
2022-08-27T16:28:47.847Z,27.71
2022-08-27T16:31:16.104Z,27.56
2022-08-27T16:33:44.389Z,27.32
2022-08-27T16:36:12.575Z,27.17
2022-08-27T16:38:47.783Z,27.00
2022-08-27T16:41:15.645Z,26.82
2022-08-27T16:43:43.757Z,26.61
2022-08-27T16:46:11.831Z,26.47
2022-08-27T16:49:01.782Z,26.34
2022-08-27T16:51:35.964Z,26.20
2022-08-27T16:54:05.404Z,26.07
2022-08-27T16:56:37.699Z,26.01
2022-08-27T16:59:06.965Z,25.93
2022-08-27T17:01:35.413Z,25.86
2022-08-27T17:04:18.185Z,25.83
2022-08-27T17:06:51.893Z,25.75
2022-08-27T17:09:19.741Z,25.61
2022-08-27T17:11:57.094Z,25.54
2022-08-27T17:14:26.959Z,25.50
2022-08-27T17:16:54.833Z,25.49
2022-08-27T17:19:26.333Z,25.40
2022-08-27T17:21:55.017Z,25.29
2022-08-27T17:24:23.095Z,25.26
2022-08-27T17:26:53.959Z,25.25
2022-08-27T17:29:21.834Z,25.23
2022-08-27T17:31:49.705Z,25.18
2022-08-27T17:34:21.917Z,25.13
2022-08-27T17:36:51.889Z,25.09
2022-08-27T17:39:22.442Z,25.03
2022-08-27T17:41:53.224Z,25.01
2022-08-27T17:44:23.443Z,24.97
2022-08-27T17:46:53.298Z,24.94
2022-08-27T17:49:21.747Z,24.91
2022-08-27T17:51:55.408Z,24.88
2022-08-27T17:54:36.836Z,24.86
2022-08-27T17:57:19.674Z,24.84
2022-08-27T17:59:47.603Z,24.78
2022-08-27T18:02:28.145Z,24.75
2022-08-27T18:05:02.019Z,24.70
2022-08-27T18:07:29.904Z,24.65
2022-08-27T18:09:58.266Z,24.60
2022-08-27T18:12:27.320Z,24.56
2022-08-27T18:15:06.593Z,24.52
2022-08-27T18:17:35.686Z,24.50
2022-08-27T18:20:06.486Z,24.48
2022-08-27T18:22:35.158Z,24.45
2022-08-27T18:25:09.640Z,24.43
2022-08-27T18:27:40.202Z,24.42
2022-08-27T18:30:08.645Z,24.42
2022-08-27T18:32:36.617Z,24.41
2022-08-27T18:35:15.077Z,24.38
2022-08-27T18:37:43.043Z,24.37
2022-08-27T18:40:12.751Z,24.32
2022-08-27T18:42:41.686Z,24.29
2022-08-27T18:45:23.061Z,24.25
2022-08-27T18:47:52.878Z,24.21
2022-08-27T18:50:22.084Z,24.18
2022-08-27T18:52:52.176Z,24.11
2022-08-27T18:55:23.462Z,24.06
2022-08-27T18:57:52.072Z,24.04
2022-08-27T19:00:20.983Z,24.02
2022-08-27T19:02:52.873Z,23.96
2022-08-27T19:05:25.370Z,23.92
2022-08-27T19:07:56.840Z,23.91
2022-08-27T19:10:25.937Z,23.88
2022-08-27T19:12:54.106Z,23.83
2022-08-27T19:15:22.757Z,23.78
2022-08-27T19:17:55.517Z,23.76
2022-08-27T19:20:23.782Z,23.73
2022-08-27T19:22:52.443Z,23.68
2022-08-27T19:25:21.014Z,23.63
2022-08-27T19:27:49.465Z,23.59
2022-08-27T19:30:17.620Z,23.55
2022-08-27T19:32:54.965Z,23.53
2022-08-27T19:35:26.013Z,23.50
2022-08-27T19:37:53.855Z,23.49
2022-08-27T19:40:22.607Z,23.49
2022-08-27T19:42:51.241Z,23.46
2022-08-27T19:45:25.273Z,23.40
2022-08-27T19:47:53.632Z,23.34
2022-08-27T19:50:23.259Z,23.30
2022-08-27T19:52:52.105Z,23.25
2022-08-27T19:55:20.626Z,23.21
2022-08-27T19:57:49.877Z,23.17
2022-08-27T20:00:20.709Z,23.13
2022-08-27T20:02:50.779Z,23.10
2022-08-27T20:05:22.988Z,23.05
2022-08-27T20:07:52.830Z,23.00
2022-08-27T20:10:31.545Z,22.94
2022-08-27T20:13:05.684Z,22.90
2022-08-27T20:15:35.174Z,22.85
2022-08-27T20:18:05.090Z,22.83
2022-08-27T20:20:34.971Z,22.79
2022-08-27T20:23:05.237Z,22.78
2022-08-27T20:25:34.983Z,22.76
2022-08-27T20:28:34.953Z,22.75
2022-08-27T20:30:57.723Z,22.72
2022-08-27T20:33:27.247Z,22.70
2022-08-27T20:35:57.144Z,22.67
2022-08-27T20:38:25.186Z,22.69
2022-08-27T20:40:53.004Z,22.70
2022-08-27T20:43:23.457Z,22.70
2022-08-27T20:45:51.450Z,22.65
2022-08-27T20:48:19.717Z,22.57
2022-08-27T20:50:47.967Z,22.50
2022-08-27T20:53:15.939Z,22.45
2022-08-27T20:55:45.033Z,22.40
2022-08-27T20:58:31.462Z,22.35
2022-08-27T21:01:00.031Z,22.30
2022-08-27T21:03:29.391Z,22.25
2022-08-27T21:05:57.258Z,22.20
2022-08-27T21:08:25.631Z,22.16
2022-08-27T21:10:57.067Z,22.12
2022-08-27T21:13:27.135Z,22.08
2022-08-27T21:15:56.468Z,22.04
2022-08-27T21:18:29.498Z,22.01
2022-08-27T21:21:01.431Z,21.96
2022-08-27T21:23:30.572Z,21.91
2022-08-27T21:26:08.064Z,21.86
2022-08-27T21:28:41.965Z,21.82
2022-08-27T21:31:12.612Z,21.77
2022-08-27T21:33:40.895Z,21.74
2022-08-27T21:36:12.412Z,21.72
2022-08-27T21:38:41.287Z,21.68
2022-08-27T21:41:09.796Z,21.65
2022-08-27T21:43:38.108Z,21.63
2022-08-27T21:46:07.037Z,21.62
2022-08-27T21:48:36.153Z,21.60
2022-08-27T21:51:09.623Z,21.59
2022-08-27T21:53:37.872Z,21.57
2022-08-27T21:56:06.325Z,21.56
2022-08-27T21:58:34.776Z,21.55
2022-08-27T22:01:05.793Z,21.53
2022-08-27T22:03:36.049Z,21.52
2022-08-27T22:06:07.047Z,21.51
2022-08-27T22:08:36.124Z,21.49
2022-08-27T22:11:04.463Z,21.48
2022-08-27T22:13:33.824Z,21.48
2022-08-27T22:16:04.955Z,21.47
2022-08-27T22:18:33.312Z,21.48
2022-08-27T22:21:02.873Z,21.48
2022-08-27T22:23:31.141Z,21.49
2022-08-27T22:26:00.089Z,21.49
2022-08-27T22:28:28.042Z,21.49
2022-08-27T22:30:56.498Z,21.50
2022-08-27T22:33:24.571Z,21.52
2022-08-27T22:35:52.486Z,21.52
2022-08-27T22:38:20.312Z,21.53
2022-08-27T22:40:49.606Z,21.53
2022-08-27T22:43:17.447Z,21.52
2022-08-27T22:45:45.547Z,21.52
2022-08-27T22:48:14.886Z,21.51
2022-08-27T22:50:42.792Z,21.48
2022-08-27T22:53:12.248Z,21.47
2022-08-27T22:55:40.103Z,21.46
2022-08-27T22:58:08.062Z,21.44
2022-08-27T23:00:37.888Z,21.42
2022-08-27T23:03:10.224Z,21.42
2022-08-27T23:05:40.198Z,21.42
2022-08-27T23:08:12.169Z,21.41
2022-08-27T23:10:41.970Z,21.39
2022-08-27T23:13:11.888Z,21.35
2022-08-27T23:15:41.183Z,21.34
2022-08-27T23:18:09.166Z,21.34
2022-08-27T23:20:37.619Z,21.33
2022-08-27T23:23:08.023Z,21.34
2022-08-27T23:25:54.659Z,21.34
2022-08-27T23:28:23.545Z,21.33
2022-08-27T23:30:51.598Z,21.35
2022-08-27T23:33:20.245Z,21.37
2022-08-27T23:35:51.496Z,21.40
2022-08-27T23:38:21.217Z,21.42
2022-08-27T23:40:50.523Z,21.44
2022-08-27T23:43:19.223Z,21.46
2022-08-27T23:45:49.204Z,21.43
2022-08-27T23:48:17.008Z,21.43
2022-08-27T23:50:48.119Z,21.45
2022-08-27T23:53:16.045Z,21.46
2022-08-27T23:55:44.204Z,21.48
2022-08-27T23:58:13.462Z,21.47
